• pl
  • eng

Awiacja
Kliknij na pogrubioną czerwoną nazwę, aby odkodować depeszę. 22:01 24.05.2019
  • WIND
  • SIGNIFICANT EURO
  • SIGNIFICANT
  • SIGMET
  • AIRMET
  • TAF FC
  • TAF FT
  • METAR GG30
  • METAR GG00


METAR EPBY 242000Z 19006KT CAVOK 15/07 Q1011 =

METAR EPGD 242000Z 14006KT CAVOK 14/09 Q1010 =

METAR EPKK 242000Z VRB01KT 6000 FEW068 12/11 Q1013 =

METAR EPKT 242000Z VRB02KT CAVOK 10/09 Q1013 =

METAR EPLB 242000Z 27004KT 8000 FEW030 15/14 Q1011 =

METAR EPLL 242000Z 00000KT CAVOK 12/10 Q1012 =

METAR EPMO 242000Z 26003KT CAVOK 16/11 Q1011 =

METAR EPPO 242000Z 19003KT CAVOK 13/12 Q1012 =

METAR EPRA 242000Z NIL=

METAR EPRZ 242000Z 25009KT 9999 BKN008 OVC020 14/13 Q1012 =

METAR EPSC 242000Z 11003KT CAVOK 14/09 Q1010 =

METAR EPSY 242000Z VRB02KT CAVOK 14/09 Q1011=

METAR EPWA 242000Z 25004KT CAVOK 15/11 Q1011 NOSIG=

METAR EPWR 242000Z 20001KT CAVOK 12/07 Q1013 =

METAR EPZG 242000Z VRB01KT CAVOK 15/09 Q1012 =
 METAR EPRA
:Brak depeszy METAR z EPRA z dnia 24 z godziny 20:00 UTC
Awiacja.imgw.pl jest pogodowym serwisem informacyjnym
Instytutu Meteorologii i Gospodarki Wodnej Państwowego Instytutu Badawczego.
Copyright IMGW PIB 2009-2011© Wszelkie prawa zastrzeżone.